sensor_id;sensor_type;location;lat;lon;timestamp;P1;durP1;ratioP1;P2;durP2;ratioP2
57395;SDS011;43222;52.912;6.940;2023-04-15T00:01:23;15.55;;;7.47;;
57395;SDS011;43222;52.912;6.940;2023-04-15T00:03:50;14.57;;;6.85;;
57395;SDS011;43222;52.912;6.940;2023-04-15T00:06:17;14.00;;;6.28;;
57395;SDS011;43222;52.912;6.940;2023-04-15T00:08:44;15.82;;;6.63;;
57395;SDS011;43222;52.912;6.940;2023-04-15T00:11:10;13.57;;;6.85;;
57395;SDS011;43222;52.912;6.940;2023-04-15T00:13:36;14.18;;;6.57;;
57395;SDS011;43222;52.912;6.940;2023-04-15T00:16:03;12.85;;;6.82;;
57395;SDS011;43222;52.912;6.940;2023-04-15T00:18:30;15.27;;;7.00;;
57395;SDS011;43222;52.912;6.940;2023-04-15T00:20:57;10.65;;;6.13;;
57395;SDS011;43222;52.912;6.940;2023-04-15T00:23:23;12.55;;;5.93;;
57395;SDS011;43222;52.912;6.940;2023-04-15T00:25:50;14.57;;;6.88;;
57395;SDS011;43222;52.912;6.940;2023-04-15T00:28:16;13.50;;;7.38;;
57395;SDS011;43222;52.912;6.940;2023-04-15T00:30:42;13.55;;;7.60;;
57395;SDS011;43222;52.912;6.940;2023-04-15T00:33:08;11.48;;;7.20;;
57395;SDS011;43222;52.912;6.940;2023-04-15T00:35:34;12.05;;;6.93;;
57395;SDS011;43222;52.912;6.940;2023-04-15T00:38:02;10.68;;;6.65;;
57395;SDS011;43222;52.912;6.940;2023-04-15T00:40:28;11.90;;;6.85;;
57395;SDS011;43222;52.912;6.940;2023-04-15T00:42:55;13.18;;;6.72;;
57395;SDS011;43222;52.912;6.940;2023-04-15T00:45:21;15.02;;;7.18;;
57395;SDS011;43222;52.912;6.940;2023-04-15T00:47:48;13.02;;;7.40;;
57395;SDS011;43222;52.912;6.940;2023-04-15T00:50:14;11.18;;;7.35;;
57395;SDS011;43222;52.912;6.940;2023-04-15T00:52:40;13.27;;;7.72;;
57395;SDS011;43222;52.912;6.940;2023-04-15T00:55:06;15.40;;;7.72;;
57395;SDS011;43222;52.912;6.940;2023-04-15T00:57:32;14.20;;;7.47;;
57395;SDS011;43222;52.912;6.940;2023-04-15T01:00:00;12.93;;;7.45;;
57395;SDS011;43222;52.912;6.940;2023-04-15T01:02:26;13.38;;;7.47;;
57395;SDS011;43222;52.912;6.940;2023-04-15T01:04:52;18.23;;;9.02;;
57395;SDS011;43222;52.912;6.940;2023-04-15T01:07:19;15.07;;;8.93;;
57395;SDS011;43222;52.912;6.940;2023-04-15T01:09:45;15.15;;;9.00;;
57395;SDS011;43222;52.912;6.940;2023-04-15T01:12:12;14.82;;;8.27;;
57395;SDS011;43222;52.912;6.940;2023-04-15T01:14:40;14.38;;;8.73;;
57395;SDS011;43222;52.912;6.940;2023-04-15T01:17:06;13.45;;;8.63;;
57395;SDS011;43222;52.912;6.940;2023-04-15T01:19:32;15.13;;;7.65;;
57395;SDS011;43222;52.912;6.940;2023-04-15T01:21:58;13.32;;;7.93;;
57395;SDS011;43222;52.912;6.940;2023-04-15T01:24:25;15.93;;;8.77;;
57395;SDS011;43222;52.912;6.940;2023-04-15T01:26:52;16.77;;;10.07;;
57395;SDS011;43222;52.912;6.940;2023-04-15T01:29:18;15.60;;;10.88;;
57395;SDS011;43222;52.912;6.940;2023-04-15T01:31:51;19.33;;;11.73;;
57395;SDS011;43222;52.912;6.940;2023-04-15T01:34:18;17.50;;;10.98;;
57395;SDS011;43222;52.912;6.940;2023-04-15T01:36:45;19.55;;;12.05;;
57395;SDS011;43222;52.912;6.940;2023-04-15T01:39:11;18.42;;;12.05;;
57395;SDS011;43222;52.912;6.940;2023-04-15T01:41:37;18.75;;;12.30;;
57395;SDS011;43222;52.912;6.940;2023-04-15T01:44:05;18.05;;;11.88;;
57395;SDS011;43222;52.912;6.940;2023-04-15T01:46:32;20.23;;;11.82;;
57395;SDS011;43222;52.912;6.940;2023-04-15T01:48:58;19.20;;;11.80;;
57395;SDS011;43222;52.912;6.940;2023-04-15T01:51:24;21.45;;;11.18;;
57395;SDS011;43222;52.912;6.940;2023-04-15T01:53:51;21.58;;;11.30;;
57395;SDS011;43222;52.912;6.940;2023-04-15T01:56:17;17.25;;;10.60;;
57395;SDS011;43222;52.912;6.940;2023-04-15T01:58:43;15.60;;;9.77;;
57395;SDS011;43222;52.912;6.940;2023-04-15T02:01:10;17.20;;;9.45;;
57395;SDS011;43222;52.912;6.940;2023-04-15T02:03:37;15.00;;;9.85;;
57395;SDS011;43222;52.912;6.940;2023-04-15T02:06:03;15.30;;;9.75;;
57395;SDS011;43222;52.912;6.940;2023-04-15T02:08:30;17.40;;;10.48;;
57395;SDS011;43222;52.912;6.940;2023-04-15T02:10:56;16.85;;;10.45;;
57395;SDS011;43222;52.912;6.940;2023-04-15T02:13:22;16.48;;;9.50;;
57395;SDS011;43222;52.912;6.940;2023-04-15T02:15:48;16.85;;;10.77;;
57395;SDS011;43222;52.912;6.940;2023-04-15T02:18:16;19.20;;;10.35;;
57395;SDS011;43222;52.912;6.940;2023-04-15T02:20:42;16.70;;;10.52;;
57395;SDS011;43222;52.912;6.940;2023-04-15T02:23:09;16.02;;;9.85;;
57395;SDS011;43222;52.912;6.940;2023-04-15T02:25:36;15.35;;;9.85;;
57395;SDS011;43222;52.912;6.940;2023-04-15T02:28:03;16.23;;;9.82;;
57395;SDS011;43222;52.912;6.940;2023-04-15T02:30:30;18.15;;;10.18;;
57395;SDS011;43222;52.912;6.940;2023-04-15T02:32:57;14.45;;;9.43;;
57395;SDS011;43222;52.912;6.940;2023-04-15T02:35:23;15.13;;;10.70;;
57395;SDS011;43222;52.912;6.940;2023-04-15T02:37:50;16.50;;;10.82;;
57395;SDS011;43222;52.912;6.940;2023-04-15T02:40:16;20.58;;;10.77;;
57395;SDS011;43222;52.912;6.940;2023-04-15T02:42:42;19.20;;;11.02;;
57395;SDS011;43222;52.912;6.940;2023-04-15T02:45:09;16.33;;;9.90;;
57395;SDS011;43222;52.912;6.940;2023-04-15T02:47:36;14.98;;;9.38;;
57395;SDS011;43222;52.912;6.940;2023-04-15T02:50:08;16.77;;;10.40;;
57395;SDS011;43222;52.912;6.940;2023-04-15T02:52:36;16.10;;;9.63;;
57395;SDS011;43222;52.912;6.940;2023-04-15T02:55:02;14.23;;;9.68;;
57395;SDS011;43222;52.912;6.940;2023-04-15T02:57:29;15.82;;;10.55;;
57395;SDS011;43222;52.912;6.940;2023-04-15T02:59:55;15.77;;;10.23;;
57395;SDS011;43222;52.912;6.940;2023-04-15T03:02:21;16.02;;;9.98;;
57395;SDS011;43222;52.912;6.940;2023-04-15T03:04:47;17.48;;;11.50;;
57395;SDS011;43222;52.912;6.940;2023-04-15T03:07:14;14.52;;;10.10;;
57395;SDS011;43222;52.912;6.940;2023-04-15T03:09:40;16.20;;;11.30;;
57395;SDS011;43222;52.912;6.940;2023-04-15T03:12:06;16.33;;;11.05;;
57395;SDS011;43222;52.912;6.940;2023-04-15T03:14:32;16.80;;;10.88;;
57395;SDS011;43222;52.912;6.940;2023-04-15T03:16:58;15.82;;;10.48;;
57395;SDS011;43222;52.912;6.940;2023-04-15T03:19:24;16.90;;;11.32;;
57395;SDS011;43222;52.912;6.940;2023-04-15T03:21:51;19.05;;;11.13;;
57395;SDS011;43222;52.912;6.940;2023-04-15T03:24:17;16.08;;;11.10;;
57395;SDS011;43222;52.912;6.940;2023-04-15T03:26:43;17.92;;;11.20;;
57395;SDS011;43222;52.912;6.940;2023-04-15T03:29:09;18.35;;;11.48;;
57395;SDS011;43222;52.912;6.940;2023-04-15T03:31:35;15.75;;;11.52;;
57395;SDS011;43222;52.912;6.940;2023-04-15T03:34:01;16.45;;;11.88;;
57395;SDS011;43222;52.912;6.940;2023-04-15T03:36:28;17.88;;;10.77;;
57395;SDS011;43222;52.912;6.940;2023-04-15T03:38:56;18.75;;;12.07;;
57395;SDS011;43222;52.912;6.940;2023-04-15T03:41:22;16.48;;;11.60;;
57395;SDS011;43222;52.912;6.940;2023-04-15T03:43:48;18.05;;;12.10;;
57395;SDS011;43222;52.912;6.940;2023-04-15T03:46:16;17.25;;;11.68;;
57395;SDS011;43222;52.912;6.940;2023-04-15T03:48:42;15.70;;;12.13;;
57395;SDS011;43222;52.912;6.940;2023-04-15T03:51:09;18.27;;;11.82;;
57395;SDS011;43222;52.912;6.940;2023-04-15T03:53:35;20.17;;;12.70;;
57395;SDS011;43222;52.912;6.940;2023-04-15T03:56:01;18.90;;;13.95;;
57395;SDS011;43222;52.912;6.940;2023-04-15T03:58:27;20.73;;;12.85;;
57395;SDS011;43222;52.912;6.940;2023-04-15T04:00:53;19.48;;;14.15;;
57395;SDS011;43222;52.912;6.940;2023-04-15T04:03:20;18.63;;;13.65;;
57395;SDS011;43222;52.912;6.940;2023-04-15T04:05:46;18.98;;;13.60;;
57395;SDS011;43222;52.912;6.940;2023-04-15T04:08:12;18.35;;;14.23;;
57395;SDS011;43222;52.912;6.940;2023-04-15T04:10:40;18.63;;;14.30;;
57395;SDS011;43222;52.912;6.940;2023-04-15T04:13:06;21.20;;;15.05;;
57395;SDS011;43222;52.912;6.940;2023-04-15T04:15:32;20.63;;;14.00;;
57395;SDS011;43222;52.912;6.940;2023-04-15T04:17:58;19.98;;;13.73;;
57395;SDS011;43222;52.912;6.940;2023-04-15T04:20:24;18.80;;;14.35;;
57395;SDS011;43222;52.912;6.940;2023-04-15T04:22:50;21.90;;;14.63;;
57395;SDS011;43222;52.912;6.940;2023-04-15T04:25:16;24.13;;;14.27;;
57395;SDS011;43222;52.912;6.940;2023-04-15T04:27:43;20.50;;;13.55;;
57395;SDS011;43222;52.912;6.940;2023-04-15T04:30:09;18.30;;;13.15;;
57395;SDS011;43222;52.912;6.940;2023-04-15T04:32:36;18.08;;;13.32;;
57395;SDS011;43222;52.912;6.940;2023-04-15T04:35:02;19.48;;;13.93;;
57395;SDS011;43222;52.912;6.940;2023-04-15T04:37:28;19.65;;;13.30;;
57395;SDS011;43222;52.912;6.940;2023-04-15T04:39:55;20.17;;;13.50;;
57395;SDS011;43222;52.912;6.940;2023-04-15T04:42:21;20.63;;;13.60;;
57395;SDS011;43222;52.912;6.940;2023-04-15T04:44:47;18.58;;;13.15;;
57395;SDS011;43222;52.912;6.940;2023-04-15T04:47:13;19.00;;;13.45;;
57395;SDS011;43222;52.912;6.940;2023-04-15T04:49:39;20.27;;;13.63;;
57395;SDS011;43222;52.912;6.940;2023-04-15T04:52:05;19.55;;;13.23;;
57395;SDS011;43222;52.912;6.940;2023-04-15T04:54:32;21.83;;;14.18;;
57395;SDS011;43222;52.912;6.940;2023-04-15T04:56:58;23.15;;;15.02;;
57395;SDS011;43222;52.912;6.940;2023-04-15T04:59:24;21.50;;;15.27;;
57395;SDS011;43222;52.912;6.940;2023-04-15T05:01:51;20.50;;;15.18;;
57395;SDS011;43222;52.912;6.940;2023-04-15T05:04:17;19.48;;;15.40;;
57395;SDS011;43222;52.912;6.940;2023-04-15T05:06:43;23.30;;;16.60;;
57395;SDS011;43222;52.912;6.940;2023-04-15T05:09:09;24.10;;;17.17;;
57395;SDS011;43222;52.912;6.940;2023-04-15T05:11:35;22.20;;;16.58;;
57395;SDS011;43222;52.912;6.940;2023-04-15T05:14:01;25.90;;;16.02;;
57395;SDS011;43222;52.912;6.940;2023-04-15T05:16:27;25.80;;;16.30;;
57395;SDS011;43222;52.912;6.940;2023-04-15T05:18:53;25.08;;;17.60;;
57395;SDS011;43222;52.912;6.940;2023-04-15T05:21:19;25.05;;;17.60;;
57395;SDS011;43222;52.912;6.940;2023-04-15T05:23:45;24.48;;;17.42;;
57395;SDS011;43222;52.912;6.940;2023-04-15T05:26:12;27.08;;;19.42;;
57395;SDS011;43222;52.912;6.940;2023-04-15T05:28:38;25.20;;;18.83;;
57395;SDS011;43222;52.912;6.940;2023-04-15T05:31:04;29.08;;;20.35;;
57395;SDS011;43222;52.912;6.940;2023-04-15T05:33:31;27.08;;;19.42;;
57395;SDS011;43222;52.912;6.940;2023-04-15T05:35:57;28.05;;;20.13;;
57395;SDS011;43222;52.912;6.940;2023-04-15T05:38:23;29.63;;;21.25;;
57395;SDS011;43222;52.912;6.940;2023-04-15T05:40:49;31.27;;;21.35;;
57395;SDS011;43222;52.912;6.940;2023-04-15T05:43:15;27.60;;;21.23;;
57395;SDS011;43222;52.912;6.940;2023-04-15T05:45:41;26.65;;;20.38;;
57395;SDS011;43222;52.912;6.940;2023-04-15T05:48:07;27.92;;;21.23;;
57395;SDS011;43222;52.912;6.940;2023-04-15T05:50:34;28.42;;;19.48;;
57395;SDS011;43222;52.912;6.940;2023-04-15T05:53:00;28.13;;;21.17;;
57395;SDS011;43222;52.912;6.940;2023-04-15T05:55:26;28.67;;;20.67;;
57395;SDS011;43222;52.912;6.940;2023-04-15T05:57:52;26.63;;;19.60;;
57395;SDS011;43222;52.912;6.940;2023-04-15T06:00:18;25.63;;;18.92;;
57395;SDS011;43222;52.912;6.940;2023-04-15T06:02:45;30.30;;;19.92;;
57395;SDS011;43222;52.912;6.940;2023-04-15T06:05:11;27.17;;;19.35;;
57395;SDS011;43222;52.912;6.940;2023-04-15T06:07:38;26.88;;;19.48;;
57395;SDS011;43222;52.912;6.940;2023-04-15T06:10:04;29.60;;;20.27;;
57395;SDS011;43222;52.912;6.940;2023-04-15T06:12:31;27.33;;;20.13;;
57395;SDS011;43222;52.912;6.940;2023-04-15T06:14:57;27.50;;;20.40;;
57395;SDS011;43222;52.912;6.940;2023-04-15T06:17:23;24.55;;;18.58;;
57395;SDS011;43222;52.912;6.940;2023-04-15T06:19:49;25.27;;;18.15;;
57395;SDS011;43222;52.912;6.940;2023-04-15T06:22:20;27.83;;;18.02;;
57395;SDS011;43222;52.912;6.940;2023-04-15T06:24:47;23.40;;;18.40;;
57395;SDS011;43222;52.912;6.940;2023-04-15T06:27:14;25.42;;;18.05;;
57395;SDS011;43222;52.912;6.940;2023-04-15T06:29:40;25.52;;;17.73;;
57395;SDS011;43222;52.912;6.940;2023-04-15T06:32:07;25.63;;;18.30;;
57395;SDS011;43222;52.912;6.940;2023-04-15T06:34:33;25.90;;;18.58;;
57395;SDS011;43222;52.912;6.940;2023-04-15T06:36:59;27.73;;;18.67;;
57395;SDS011;43222;52.912;6.940;2023-04-15T06:39:25;23.80;;;18.08;;
57395;SDS011;43222;52.912;6.940;2023-04-15T06:41:51;25.20;;;18.77;;
57395;SDS011;43222;52.912;6.940;2023-04-15T06:44:18;27.83;;;18.67;;
57395;SDS011;43222;52.912;6.940;2023-04-15T06:46:44;22.63;;;16.88;;
57395;SDS011;43222;52.912;6.940;2023-04-15T06:49:10;23.48;;;16.85;;
57395;SDS011;43222;52.912;6.940;2023-04-15T06:51:36;22.48;;;14.80;;
57395;SDS011;43222;52.912;6.940;2023-04-15T06:54:03;22.48;;;14.55;;
57395;SDS011;43222;52.912;6.940;2023-04-15T06:56:31;22.15;;;15.38;;
57395;SDS011;43222;52.912;6.940;2023-04-15T06:58:57;16.95;;;13.48;;
57395;SDS011;43222;52.912;6.940;2023-04-15T07:01:23;16.38;;;12.18;;
57395;SDS011;43222;52.912;6.940;2023-04-15T07:03:49;16.98;;;12.98;;
57395;SDS011;43222;52.912;6.940;2023-04-15T07:06:15;17.00;;;11.93;;
57395;SDS011;43222;52.912;6.940;2023-04-15T07:08:41;18.33;;;10.75;;
57395;SDS011;43222;52.912;6.940;2023-04-15T07:11:07;16.55;;;10.65;;
57395;SDS011;43222;52.912;6.940;2023-04-15T07:13:34;14.63;;;10.13;;
57395;SDS011;43222;52.912;6.940;2023-04-15T07:16:00;12.50;;;9.13;;
57395;SDS011;43222;52.912;6.940;2023-04-15T07:18:26;15.45;;;9.18;;
57395;SDS011;43222;52.912;6.940;2023-04-15T07:20:52;13.27;;;9.48;;
57395;SDS011;43222;52.912;6.940;2023-04-15T07:23:18;14.23;;;10.15;;
57395;SDS011;43222;52.912;6.940;2023-04-15T07:25:45;14.10;;;9.73;;
57395;SDS011;43222;52.912;6.940;2023-04-15T07:28:11;13.60;;;9.95;;
57395;SDS011;43222;52.912;6.940;2023-04-15T07:30:37;13.85;;;9.52;;
57395;SDS011;43222;52.912;6.940;2023-04-15T07:33:03;13.40;;;8.88;;
57395;SDS011;43222;52.912;6.940;2023-04-15T07:35:29;14.63;;;9.45;;
57395;SDS011;43222;52.912;6.940;2023-04-15T07:37:55;13.98;;;8.95;;
57395;SDS011;43222;52.912;6.940;2023-04-15T07:40:21;14.27;;;9.20;;
57395;SDS011;43222;52.912;6.940;2023-04-15T07:42:47;13.90;;;9.55;;
57395;SDS011;43222;52.912;6.940;2023-04-15T07:45:14;15.70;;;9.93;;
57395;SDS011;43222;52.912;6.940;2023-04-15T07:47:40;12.55;;;8.80;;
57395;SDS011;43222;52.912;6.940;2023-04-15T07:50:08;14.20;;;9.15;;
57395;SDS011;43222;52.912;6.940;2023-04-15T07:52:35;13.70;;;8.80;;
57395;SDS011;43222;52.912;6.940;2023-04-15T07:55:06;12.77;;;9.00;;
57395;SDS011;43222;52.912;6.940;2023-04-15T07:57:36;14.57;;;8.80;;
57395;SDS011;43222;52.912;6.940;2023-04-15T08:00:02;12.93;;;8.50;;
57395;SDS011;43222;52.912;6.940;2023-04-15T08:02:29;13.13;;;8.25;;
57395;SDS011;43222;52.912;6.940;2023-04-15T08:04:56;13.10;;;8.48;;
57395;SDS011;43222;52.912;6.940;2023-04-15T08:07:22;11.73;;;8.20;;
57395;SDS011;43222;52.912;6.940;2023-04-15T08:09:49;11.18;;;6.47;;
57395;SDS011;43222;52.912;6.940;2023-04-15T08:12:15;9.90;;;6.47;;
57395;SDS011;43222;52.912;6.940;2023-04-15T08:14:41;9.38;;;6.03;;
57395;SDS011;43222;52.912;6.940;2023-04-15T08:17:07;6.85;;;4.55;;
57395;SDS011;43222;52.912;6.940;2023-04-15T08:19:33;10.60;;;5.88;;
57395;SDS011;43222;52.912;6.940;2023-04-15T08:21:59;10.40;;;5.57;;
57395;SDS011;43222;52.912;6.940;2023-04-15T08:24:26;8.52;;;6.05;;
57395;SDS011;43222;52.912;6.940;2023-04-15T08:26:52;8.85;;;5.75;;
57395;SDS011;43222;52.912;6.940;2023-04-15T08:29:18;8.32;;;5.50;;
57395;SDS011;43222;52.912;6.940;2023-04-15T08:31:44;11.88;;;5.95;;
57395;SDS011;43222;52.912;6.940;2023-04-15T08:34:11;9.07;;;5.70;;
57395;SDS011;43222;52.912;6.940;2023-04-15T08:36:37;11.05;;;5.45;;
57395;SDS011;43222;52.912;6.940;2023-04-15T08:39:03;9.68;;;4.93;;
57395;SDS011;43222;52.912;6.940;2023-04-15T08:42:15;8.52;;;4.78;;
57395;SDS011;43222;52.912;6.940;2023-04-15T08:44:19;7.63;;;4.90;;
57395;SDS011;43222;52.912;6.940;2023-04-15T08:46:46;8.45;;;5.10;;
57395;SDS011;43222;52.912;6.940;2023-04-15T08:49:12;8.68;;;5.40;;
57395;SDS011;43222;52.912;6.940;2023-04-15T08:51:39;9.98;;;4.97;;
57395;SDS011;43222;52.912;6.940;2023-04-15T08:54:05;9.10;;;4.78;;
57395;SDS011;43222;52.912;6.940;2023-04-15T08:56:32;7.63;;;4.82;;
57395;SDS011;43222;52.912;6.940;2023-04-15T08:58:58;9.30;;;4.60;;
57395;SDS011;43222;52.912;6.940;2023-04-15T09:01:25;9.73;;;4.63;;
57395;SDS011;43222;52.912;6.940;2023-04-15T09:03:51;8.25;;;4.70;;
57395;SDS011;43222;52.912;6.940;2023-04-15T09:06:21;8.25;;;4.72;;
57395;SDS011;43222;52.912;6.940;2023-04-15T09:08:50;9.10;;;4.50;;
57395;SDS011;43222;52.912;6.940;2023-04-15T09:11:17;10.63;;;5.13;;
57395;SDS011;43222;52.912;6.940;2023-04-15T09:13:43;9.35;;;4.55;;
57395;SDS011;43222;52.912;6.940;2023-04-15T09:16:10;8.77;;;4.63;;
57395;SDS011;43222;52.912;6.940;2023-04-15T09:18:37;10.07;;;4.35;;
57395;SDS011;43222;52.912;6.940;2023-04-15T09:21:04;11.38;;;4.35;;
57395;SDS011;43222;52.912;6.940;2023-04-15T09:23:32;6.57;;;4.05;;
57395;SDS011;43222;52.912;6.940;2023-04-15T09:25:58;7.15;;;3.92;;
57395;SDS011;43222;52.912;6.940;2023-04-15T09:28:24;7.30;;;3.70;;
57395;SDS011;43222;52.912;6.940;2023-04-15T09:30:54;11.68;;;4.30;;
57395;SDS011;43222;52.912;6.940;2023-04-15T09:33:20;12.40;;;4.03;;
57395;SDS011;43222;52.912;6.940;2023-04-15T09:36:02;8.70;;;4.18;;
57395;SDS011;43222;52.912;6.940;2023-04-15T09:38:29;9.70;;;3.95;;
57395;SDS011;43222;52.912;6.940;2023-04-15T09:40:56;6.60;;;3.42;;
57395;SDS011;43222;52.912;6.940;2023-04-15T09:43:22;7.38;;;3.92;;
57395;SDS011;43222;52.912;6.940;2023-04-15T09:45:50;7.63;;;3.42;;
57395;SDS011;43222;52.912;6.940;2023-04-15T09:48:20;9.98;;;3.85;;
57395;SDS011;43222;52.912;6.940;2023-04-15T09:50:47;7.22;;;3.50;;
57395;SDS011;43222;52.912;6.940;2023-04-15T09:53:15;8.82;;;3.75;;
57395;SDS011;43222;52.912;6.940;2023-04-15T09:55:45;7.85;;;3.55;;
57395;SDS011;43222;52.912;6.940;2023-04-15T09:58:21;7.93;;;3.55;;
57395;SDS011;43222;52.912;6.940;2023-04-15T10:00:47;6.65;;;3.28;;
57395;SDS011;43222;52.912;6.940;2023-04-15T10:03:18;8.35;;;3.80;;
57395;SDS011;43222;52.912;6.940;2023-04-15T10:05:45;7.32;;;3.33;;
57395;SDS011;43222;52.912;6.940;2023-04-15T10:08:12;7.53;;;3.63;;
57395;SDS011;43222;52.912;6.940;2023-04-15T10:10:38;9.20;;;3.22;;
57395;SDS011;43222;52.912;6.940;2023-04-15T10:13:05;9.02;;;2.80;;
57395;SDS011;43222;52.912;6.940;2023-04-15T10:15:31;7.82;;;3.00;;
57395;SDS011;43222;52.912;6.940;2023-04-15T10:17:59;8.07;;;3.20;;
57395;SDS011;43222;52.912;6.940;2023-04-15T10:20:25;7.10;;;2.90;;
57395;SDS011;43222;52.912;6.940;2023-04-15T10:22:51;7.55;;;2.83;;
57395;SDS011;43222;52.912;6.940;2023-04-15T10:25:18;9.10;;;3.17;;
57395;SDS011;43222;52.912;6.940;2023-04-15T10:27:44;7.75;;;3.10;;
57395;SDS011;43222;52.912;6.940;2023-04-15T10:30:12;7.25;;;3.55;;
57395;SDS011;43222;52.912;6.940;2023-04-15T10:32:38;8.45;;;3.30;;
57395;SDS011;43222;52.912;6.940;2023-04-15T10:35:05;11.18;;;3.40;;
57395;SDS011;43222;52.912;6.940;2023-04-15T10:37:33;7.30;;;3.40;;
57395;SDS011;43222;52.912;6.940;2023-04-15T10:40:00;9.20;;;3.40;;
57395;SDS011;43222;52.912;6.940;2023-04-15T10:42:46;10.75;;;3.78;;
57395;SDS011;43222;52.912;6.940;2023-04-15T10:45:15;8.18;;;3.50;;
57395;SDS011;43222;52.912;6.940;2023-04-15T10:47:42;8.32;;;3.75;;
57395;SDS011;43222;52.912;6.940;2023-04-15T10:50:08;7.45;;;3.58;;
57395;SDS011;43222;52.912;6.940;2023-04-15T10:52:34;9.77;;;3.67;;
57395;SDS011;43222;52.912;6.940;2023-04-15T10:55:15;10.05;;;2.97;;
57395;SDS011;43222;52.912;6.940;2023-04-15T10:57:43;6.05;;;3.25;;
57395;SDS011;43222;52.912;6.940;2023-04-15T11:00:16;8.43;;;3.38;;
57395;SDS011;43222;52.912;6.940;2023-04-15T11:02:46;6.82;;;2.90;;
57395;SDS011;43222;52.912;6.940;2023-04-15T11:05:13;8.93;;;2.83;;
57395;SDS011;43222;52.912;6.940;2023-04-15T11:12:39;9.20;;;2.67;;
57395;SDS011;43222;52.912;6.940;2023-04-15T11:17:50;8.00;;;2.95;;
57395;SDS011;43222;52.912;6.940;2023-04-15T11:20:16;6.90;;;2.65;;
57395;SDS011;43222;52.912;6.940;2023-04-15T11:22:52;11.18;;;3.00;;
57395;SDS011;43222;52.912;6.940;2023-04-15T11:25:25;7.85;;;2.53;;
57395;SDS011;43222;52.912;6.940;2023-04-15T11:27:52;7.75;;;2.72;;
57395;SDS011;43222;52.912;6.940;2023-04-15T11:30:19;6.82;;;2.60;;
57395;SDS011;43222;52.912;6.940;2023-04-15T11:32:52;6.65;;;2.72;;
57395;SDS011;43222;52.912;6.940;2023-04-15T11:35:18;6.82;;;3.10;;
57395;SDS011;43222;52.912;6.940;2023-04-15T11:37:45;7.53;;;2.83;;
57395;SDS011;43222;52.912;6.940;2023-04-15T11:40:12;6.88;;;3.00;;
57395;SDS011;43222;52.912;6.940;2023-04-15T11:42:39;7.90;;;3.15;;
57395;SDS011;43222;52.912;6.940;2023-04-15T11:45:12;11.77;;;3.45;;
57395;SDS011;43222;52.912;6.940;2023-04-15T11:47:39;7.82;;;3.20;;
57395;SDS011;43222;52.912;6.940;2023-04-15T11:50:15;8.65;;;2.80;;
57395;SDS011;43222;52.912;6.940;2023-04-15T11:52:51;8.00;;;2.72;;
57395;SDS011;43222;52.912;6.940;2023-04-15T11:55:17;8.52;;;2.83;;
57395;SDS011;43222;52.912;6.940;2023-04-15T11:57:43;7.03;;;2.72;;
57395;SDS011;43222;52.912;6.940;2023-04-15T12:00:10;8.88;;;2.97;;
57395;SDS011;43222;52.912;6.940;2023-04-15T12:02:36;6.35;;;2.67;;
57395;SDS011;43222;52.912;6.940;2023-04-15T12:05:03;8.75;;;2.85;;
57395;SDS011;43222;52.912;6.940;2023-04-15T12:07:29;8.32;;;2.63;;
57395;SDS011;43222;52.912;6.940;2023-04-15T12:09:56;10.10;;;2.75;;
57395;SDS011;43222;52.912;6.940;2023-04-15T12:12:26;9.52;;;3.00;;
57395;SDS011;43222;52.912;6.940;2023-04-15T12:14:52;7.45;;;2.63;;
57395;SDS011;43222;52.912;6.940;2023-04-15T12:17:19;8.15;;;2.95;;
57395;SDS011;43222;52.912;6.940;2023-04-15T12:19:45;9.75;;;2.60;;
57395;SDS011;43222;52.912;6.940;2023-04-15T12:22:13;8.52;;;2.50;;
57395;SDS011;43222;52.912;6.940;2023-04-15T12:24:40;8.65;;;2.67;;
57395;SDS011;43222;52.912;6.940;2023-04-15T12:27:09;8.43;;;2.70;;
57395;SDS011;43222;52.912;6.940;2023-04-15T12:29:36;9.73;;;3.40;;
57395;SDS011;43222;52.912;6.940;2023-04-15T12:32:04;9.70;;;2.35;;
57395;SDS011;43222;52.912;6.940;2023-04-15T12:34:32;8.68;;;2.70;;
57395;SDS011;43222;52.912;6.940;2023-04-15T12:37:01;7.00;;;2.13;;
57395;SDS011;43222;52.912;6.940;2023-04-15T12:39:28;9.57;;;2.63;;
57395;SDS011;43222;52.912;6.940;2023-04-15T12:41:55;7.38;;;2.38;;
57395;SDS011;43222;52.912;6.940;2023-04-15T12:44:22;10.63;;;2.65;;
57395;SDS011;43222;52.912;6.940;2023-04-15T12:46:48;9.68;;;2.42;;
57395;SDS011;43222;52.912;6.940;2023-04-15T12:49:14;10.55;;;2.55;;
57395;SDS011;43222;52.912;6.940;2023-04-15T12:51:43;10.65;;;2.78;;
57395;SDS011;43222;52.912;6.940;2023-04-15T12:54:09;12.43;;;2.67;;
57395;SDS011;43222;52.912;6.940;2023-04-15T12:56:35;9.07;;;2.65;;
57395;SDS011;43222;52.912;6.940;2023-04-15T12:59:01;8.48;;;2.58;;
57395;SDS011;43222;52.912;6.940;2023-04-15T13:01:28;10.60;;;2.60;;
57395;SDS011;43222;52.912;6.940;2023-04-15T13:03:54;9.13;;;2.85;;
57395;SDS011;43222;52.912;6.940;2023-04-15T13:06:20;11.60;;;2.65;;
57395;SDS011;43222;52.912;6.940;2023-04-15T13:08:48;11.60;;;3.05;;
57395;SDS011;43222;52.912;6.940;2023-04-15T13:11:14;9.73;;;2.17;;
57395;SDS011;43222;52.912;6.940;2023-04-15T13:13:41;11.25;;;2.58;;
57395;SDS011;43222;52.912;6.940;2023-04-15T13:16:07;7.72;;;2.20;;
57395;SDS011;43222;52.912;6.940;2023-04-15T13:18:33;11.88;;;2.30;;
57395;SDS011;43222;52.912;6.940;2023-04-15T13:21:01;9.57;;;2.63;;
57395;SDS011;43222;52.912;6.940;2023-04-15T13:23:28;9.50;;;2.95;;
57395;SDS011;43222;52.912;6.940;2023-04-15T13:25:57;10.95;;;2.60;;
57395;SDS011;43222;52.912;6.940;2023-04-15T13:28:23;10.98;;;2.80;;
57395;SDS011;43222;52.912;6.940;2023-04-15T13:30:49;10.68;;;2.53;;
57395;SDS011;43222;52.912;6.940;2023-04-15T13:33:16;9.68;;;2.40;;
57395;SDS011;43222;52.912;6.940;2023-04-15T13:35:42;8.30;;;2.17;;
57395;SDS011;43222;52.912;6.940;2023-04-15T13:38:08;12.13;;;3.08;;
57395;SDS011;43222;52.912;6.940;2023-04-15T13:40:34;8.98;;;2.60;;
57395;SDS011;43222;52.912;6.940;2023-04-15T13:43:00;9.27;;;2.45;;
57395;SDS011;43222;52.912;6.940;2023-04-15T13:45:27;10.73;;;2.55;;
57395;SDS011;43222;52.912;6.940;2023-04-15T13:47:54;10.40;;;2.72;;
57395;SDS011;43222;52.912;6.940;2023-04-15T13:50:21;10.38;;;3.03;;
57395;SDS011;43222;52.912;6.940;2023-04-15T13:52:47;7.35;;;2.70;;
57395;SDS011;43222;52.912;6.940;2023-04-15T13:55:13;13.60;;;2.90;;
57395;SDS011;43222;52.912;6.940;2023-04-15T13:57:39;14.13;;;3.00;;
57395;SDS011;43222;52.912;6.940;2023-04-15T14:00:05;14.82;;;3.13;;
57395;SDS011;43222;52.912;6.940;2023-04-15T14:02:31;14.60;;;3.30;;
57395;SDS011;43222;52.912;6.940;2023-04-15T14:04:58;13.73;;;3.55;;
57395;SDS011;43222;52.912;6.940;2023-04-15T14:07:24;11.75;;;3.05;;
57395;SDS011;43222;52.912;6.940;2023-04-15T14:09:50;13.93;;;3.03;;
57395;SDS011;43222;52.912;6.940;2023-04-15T14:12:16;10.55;;;3.35;;
57395;SDS011;43222;52.912;6.940;2023-04-15T14:14:43;10.20;;;3.05;;
57395;SDS011;43222;52.912;6.940;2023-04-15T14:17:09;12.50;;;2.97;;
57395;SDS011;43222;52.912;6.940;2023-04-15T14:19:35;14.35;;;3.75;;
57395;SDS011;43222;52.912;6.940;2023-04-15T14:22:01;13.70;;;3.42;;
57395;SDS011;43222;52.912;6.940;2023-04-15T14:24:27;14.73;;;7.45;;
57395;SDS011;43222;52.912;6.940;2023-04-15T14:26:54;12.63;;;5.90;;
57395;SDS011;43222;52.912;6.940;2023-04-15T14:29:21;12.57;;;3.60;;
57395;SDS011;43222;52.912;6.940;2023-04-15T14:31:47;9.70;;;3.42;;
57395;SDS011;43222;52.912;6.940;2023-04-15T14:34:14;12.13;;;3.75;;
57395;SDS011;43222;52.912;6.940;2023-04-15T14:36:40;13.60;;;3.67;;
57395;SDS011;43222;52.912;6.940;2023-04-15T14:39:06;14.73;;;4.68;;